sensor_id;sensor_type;location;lat;lon;timestamp;P1;durP1;ratioP1;P2;durP2;ratioP2
82000;SDS011;71510;50.558;7.258;2023-07-31T00:00:24;4.92;;;2.47;;
82000;SDS011;71510;50.558;7.258;2023-07-31T00:02:52;6.08;;;1.85;;
82000;SDS011;71510;50.558;7.258;2023-07-31T00:05:19;7.95;;;2.87;;
82000;SDS011;71510;50.558;7.258;2023-07-31T00:07:46;6.95;;;2.60;;
82000;SDS011;71510;50.558;7.258;2023-07-31T00:10:14;5.10;;;3.22;;
82000;SDS011;71510;50.558;7.258;2023-07-31T00:12:42;6.67;;;2.65;;
82000;SDS011;71510;50.558;7.258;2023-07-31T00:15:10;4.92;;;2.30;;
82000;SDS011;71510;50.558;7.258;2023-07-31T00:17:37;2.75;;;2.10;;
82000;SDS011;71510;50.558;7.258;2023-07-31T00:20:04;3.67;;;2.27;;
82000;SDS011;71510;50.558;7.258;2023-07-31T00:22:32;4.70;;;2.35;;
82000;SDS011;71510;50.558;7.258;2023-07-31T00:24:59;4.20;;;2.35;;
82000;SDS011;71510;50.558;7.258;2023-07-31T00:27:26;5.95;;;2.12;;
82000;SDS011;71510;50.558;7.258;2023-07-31T00:29:54;5.33;;;2.05;;
82000;SDS011;71510;50.558;7.258;2023-07-31T00:32:21;4.90;;;2.25;;
82000;SDS011;71510;50.558;7.258;2023-07-31T00:34:48;5.42;;;2.42;;
82000;SDS011;71510;50.558;7.258;2023-07-31T00:37:16;4.08;;;2.00;;
82000;SDS011;71510;50.558;7.258;2023-07-31T00:39:43;2.83;;;2.33;;
82000;SDS011;71510;50.558;7.258;2023-07-31T00:42:10;7.17;;;3.02;;
82000;SDS011;71510;50.558;7.258;2023-07-31T00:44:37;6.58;;;2.30;;
82000;SDS011;71510;50.558;7.258;2023-07-31T00:47:05;6.10;;;2.67;;
82000;SDS011;71510;50.558;7.258;2023-07-31T00:49:32;6.90;;;2.62;;
82000;SDS011;71510;50.558;7.258;2023-07-31T00:51:59;6.20;;;2.72;;
82000;SDS011;71510;50.558;7.258;2023-07-31T00:54:28;4.97;;;2.90;;
82000;SDS011;71510;50.558;7.258;2023-07-31T00:56:56;7.85;;;2.72;;
82000;SDS011;71510;50.558;7.258;2023-07-31T00:59:23;4.87;;;2.77;;
82000;SDS011;71510;50.558;7.258;2023-07-31T01:01:50;6.30;;;2.52;;
82000;SDS011;71510;50.558;7.258;2023-07-31T01:04:18;7.28;;;2.62;;
82000;SDS011;71510;50.558;7.258;2023-07-31T01:09:35;5.65;;;2.55;;
82000;SDS011;71510;50.558;7.258;2023-07-31T01:12:02;7.25;;;3.22;;
82000;SDS011;71510;50.558;7.258;2023-07-31T01:14:30;6.03;;;2.80;;
82000;SDS011;71510;50.558;7.258;2023-07-31T01:16:57;4.65;;;2.65;;
82000;SDS011;71510;50.558;7.258;2023-07-31T01:19:25;6.25;;;2.62;;
82000;SDS011;71510;50.558;7.258;2023-07-31T01:21:58;4.53;;;2.65;;
82000;SDS011;71510;50.558;7.258;2023-07-31T01:24:28;4.85;;;2.77;;
82000;SDS011;71510;50.558;7.258;2023-07-31T01:27:07;7.60;;;3.15;;
82000;SDS011;71510;50.558;7.258;2023-07-31T01:29:38;7.67;;;2.85;;
82000;SDS011;71510;50.558;7.258;2023-07-31T01:32:07;6.83;;;2.80;;
82000;SDS011;71510;50.558;7.258;2023-07-31T01:34:34;6.28;;;3.05;;
82000;SDS011;71510;50.558;7.258;2023-07-31T01:37:02;4.45;;;2.60;;
82000;SDS011;71510;50.558;7.258;2023-07-31T01:39:30;5.47;;;3.02;;
82000;SDS011;71510;50.558;7.258;2023-07-31T01:41:57;7.37;;;2.90;;
82000;SDS011;71510;50.558;7.258;2023-07-31T01:44:24;5.40;;;2.87;;
82000;SDS011;71510;50.558;7.258;2023-07-31T01:46:52;5.17;;;2.83;;
82000;SDS011;71510;50.558;7.258;2023-07-31T01:49:19;7.85;;;3.12;;
82000;SDS011;71510;50.558;7.258;2023-07-31T01:51:46;4.92;;;2.87;;
82000;SDS011;71510;50.558;7.258;2023-07-31T01:54:13;6.60;;;3.02;;
82000;SDS011;71510;50.558;7.258;2023-07-31T01:56:41;6.97;;;3.25;;
82000;SDS011;71510;50.558;7.258;2023-07-31T01:59:08;5.37;;;2.80;;
82000;SDS011;71510;50.558;7.258;2023-07-31T02:01:35;6.45;;;3.10;;
82000;SDS011;71510;50.558;7.258;2023-07-31T02:04:03;6.97;;;3.25;;
82000;SDS011;71510;50.558;7.258;2023-07-31T02:06:31;6.90;;;3.05;;
82000;SDS011;71510;50.558;7.258;2023-07-31T02:08:58;6.67;;;3.00;;
82000;SDS011;71510;50.558;7.258;2023-07-31T02:11:25;7.62;;;3.05;;
82000;SDS011;71510;50.558;7.258;2023-07-31T02:13:53;7.50;;;3.12;;
82000;SDS011;71510;50.558;7.258;2023-07-31T02:16:20;6.22;;;2.77;;
82000;SDS011;71510;50.558;7.258;2023-07-31T02:18:47;6.83;;;3.00;;
82000;SDS011;71510;50.558;7.258;2023-07-31T02:21:15;5.97;;;3.37;;
82000;SDS011;71510;50.558;7.258;2023-07-31T02:23:42;6.17;;;2.77;;
82000;SDS011;71510;50.558;7.258;2023-07-31T02:26:09;5.97;;;3.08;;
82000;SDS011;71510;50.558;7.258;2023-07-31T02:28:37;6.33;;;3.12;;
82000;SDS011;71510;50.558;7.258;2023-07-31T02:31:04;9.25;;;3.10;;
82000;SDS011;71510;50.558;7.258;2023-07-31T02:33:31;6.00;;;3.25;;
82000;SDS011;71510;50.558;7.258;2023-07-31T02:35:58;3.87;;;2.58;;
82000;SDS011;71510;50.558;7.258;2023-07-31T02:38:26;3.98;;;2.72;;
82000;SDS011;71510;50.558;7.258;2023-07-31T02:40:53;5.17;;;2.37;;
82000;SDS011;71510;50.558;7.258;2023-07-31T02:43:20;4.78;;;3.08;;
82000;SDS011;71510;50.558;7.258;2023-07-31T02:45:51;5.90;;;2.75;;
82000;SDS011;71510;50.558;7.258;2023-07-31T02:50:45;5.20;;;2.50;;
82000;SDS011;71510;50.558;7.258;2023-07-31T02:53:13;5.42;;;2.62;;
82000;SDS011;71510;50.558;7.258;2023-07-31T02:55:40;4.50;;;2.90;;
82000;SDS011;71510;50.558;7.258;2023-07-31T02:58:08;6.20;;;3.00;;
82000;SDS011;71510;50.558;7.258;2023-07-31T03:00:35;7.08;;;2.70;;
82000;SDS011;71510;50.558;7.258;2023-07-31T03:03:02;5.37;;;2.70;;
82000;SDS011;71510;50.558;7.258;2023-07-31T03:05:29;6.25;;;2.77;;
82000;SDS011;71510;50.558;7.258;2023-07-31T03:07:57;6.70;;;2.37;;
82000;SDS011;71510;50.558;7.258;2023-07-31T03:10:24;4.20;;;2.40;;
82000;SDS011;71510;50.558;7.258;2023-07-31T03:12:51;5.67;;;2.95;;
82000;SDS011;71510;50.558;7.258;2023-07-31T03:15:19;4.87;;;2.25;;
82000;SDS011;71510;50.558;7.258;2023-07-31T03:17:46;6.15;;;2.62;;
82000;SDS011;71510;50.558;7.258;2023-07-31T03:20:13;4.90;;;3.02;;
82000;SDS011;71510;50.558;7.258;2023-07-31T03:22:41;6.05;;;2.98;;
82000;SDS011;71510;50.558;7.258;2023-07-31T03:25:08;7.17;;;3.30;;
82000;SDS011;71510;50.558;7.258;2023-07-31T03:27:36;6.17;;;2.75;;
82000;SDS011;71510;50.558;7.258;2023-07-31T03:30:04;6.42;;;3.25;;
82000;SDS011;71510;50.558;7.258;2023-07-31T03:32:31;4.83;;;2.52;;
82000;SDS011;71510;50.558;7.258;2023-07-31T03:34:58;8.13;;;3.25;;
82000;SDS011;71510;50.558;7.258;2023-07-31T03:37:26;4.62;;;2.50;;
82000;SDS011;71510;50.558;7.258;2023-07-31T03:39:53;6.25;;;2.98;;
82000;SDS011;71510;50.558;7.258;2023-07-31T03:42:20;6.47;;;2.98;;
82000;SDS011;71510;50.558;7.258;2023-07-31T03:44:48;7.75;;;3.00;;
82000;SDS011;71510;50.558;7.258;2023-07-31T03:47:15;7.47;;;3.65;;
82000;SDS011;71510;50.558;7.258;2023-07-31T03:49:42;6.75;;;2.70;;
82000;SDS011;71510;50.558;7.258;2023-07-31T03:52:10;6.17;;;3.08;;
82000;SDS011;71510;50.558;7.258;2023-07-31T03:54:37;8.58;;;3.08;;
82000;SDS011;71510;50.558;7.258;2023-07-31T03:57:04;4.53;;;2.98;;
82000;SDS011;71510;50.558;7.258;2023-07-31T03:59:32;5.92;;;3.02;;
82000;SDS011;71510;50.558;7.258;2023-07-31T04:01:59;4.72;;;2.83;;
82000;SDS011;71510;50.558;7.258;2023-07-31T04:04:26;8.93;;;3.55;;
82000;SDS011;71510;50.558;7.258;2023-07-31T04:06:54;8.83;;;3.02;;
82000;SDS011;71510;50.558;7.258;2023-07-31T04:09:21;7.03;;;3.00;;
82000;SDS011;71510;50.558;7.258;2023-07-31T04:11:48;6.83;;;2.98;;
82000;SDS011;71510;50.558;7.258;2023-07-31T04:14:16;6.28;;;2.92;;
82000;SDS011;71510;50.558;7.258;2023-07-31T04:16:43;8.30;;;3.25;;
82000;SDS011;71510;50.558;7.258;2023-07-31T04:19:11;8.55;;;3.15;;
82000;SDS011;71510;50.558;7.258;2023-07-31T04:21:40;6.42;;;2.90;;
82000;SDS011;71510;50.558;7.258;2023-07-31T04:24:07;14.75;;;3.17;;
82000;SDS011;71510;50.558;7.258;2023-07-31T04:26:34;11.93;;;3.92;;
82000;SDS011;71510;50.558;7.258;2023-07-31T04:29:01;12.55;;;3.77;;
82000;SDS011;71510;50.558;7.258;2023-07-31T04:31:29;7.55;;;3.02;;
82000;SDS011;71510;50.558;7.258;2023-07-31T04:33:56;7.58;;;3.52;;
82000;SDS011;71510;50.558;7.258;2023-07-31T04:36:23;5.80;;;2.83;;
82000;SDS011;71510;50.558;7.258;2023-07-31T04:38:51;7.15;;;3.22;;
82000;SDS011;71510;50.558;7.258;2023-07-31T04:41:18;6.70;;;3.17;;
82000;SDS011;71510;50.558;7.258;2023-07-31T04:43:45;5.42;;;3.30;;
82000;SDS011;71510;50.558;7.258;2023-07-31T04:46:13;10.18;;;3.72;;
82000;SDS011;71510;50.558;7.258;2023-07-31T04:48:40;6.78;;;3.02;;
82000;SDS011;71510;50.558;7.258;2023-07-31T04:51:07;6.67;;;3.33;;
82000;SDS011;71510;50.558;7.258;2023-07-31T04:53:35;9.08;;;3.67;;
82000;SDS011;71510;50.558;7.258;2023-07-31T04:56:03;6.65;;;3.02;;
82000;SDS011;71510;50.558;7.258;2023-07-31T04:58:30;4.75;;;3.20;;
82000;SDS011;71510;50.558;7.258;2023-07-31T05:00:57;5.22;;;3.55;;
82000;SDS011;71510;50.558;7.258;2023-07-31T05:03:25;3.92;;;3.00;;
82000;SDS011;71510;50.558;7.258;2023-07-31T05:05:52;4.62;;;2.98;;
82000;SDS011;71510;50.558;7.258;2023-07-31T05:08:19;7.00;;;3.47;;
82000;SDS011;71510;50.558;7.258;2023-07-31T05:10:47;4.35;;;3.10;;
82000;SDS011;71510;50.558;7.258;2023-07-31T05:13:15;6.17;;;3.40;;
82000;SDS011;71510;50.558;7.258;2023-07-31T05:15:42;5.95;;;3.40;;
82000;SDS011;71510;50.558;7.258;2023-07-31T05:18:09;9.18;;;3.92;;
82000;SDS011;71510;50.558;7.258;2023-07-31T05:20:36;18.05;;;3.55;;
82000;SDS011;71510;50.558;7.258;2023-07-31T05:23:04;6.55;;;3.50;;
82000;SDS011;71510;50.558;7.258;2023-07-31T05:25:31;6.22;;;3.22;;
82000;SDS011;71510;50.558;7.258;2023-07-31T05:27:58;5.55;;;3.50;;
82000;SDS011;71510;50.558;7.258;2023-07-31T05:30:26;9.70;;;3.45;;
82000;SDS011;71510;50.558;7.258;2023-07-31T05:32:54;5.85;;;3.50;;
82000;SDS011;71510;50.558;7.258;2023-07-31T05:35:21;7.05;;;3.65;;
82000;SDS011;71510;50.558;7.258;2023-07-31T05:37:48;4.03;;;3.12;;
82000;SDS011;71510;50.558;7.258;2023-07-31T05:40:15;9.10;;;4.05;;
82000;SDS011;71510;50.558;7.258;2023-07-31T05:42:43;6.40;;;3.17;;
82000;SDS011;71510;50.558;7.258;2023-07-31T05:45:10;6.67;;;3.42;;
82000;SDS011;71510;50.558;7.258;2023-07-31T05:47:39;7.25;;;3.55;;
82000;SDS011;71510;50.558;7.258;2023-07-31T05:50:06;6.08;;;3.40;;
82000;SDS011;71510;50.558;7.258;2023-07-31T05:52:34;6.47;;;3.30;;
82000;SDS011;71510;50.558;7.258;2023-07-31T05:55:01;7.12;;;3.45;;
82000;SDS011;71510;50.558;7.258;2023-07-31T05:57:29;7.22;;;3.40;;
82000;SDS011;71510;50.558;7.258;2023-07-31T05:59:56;4.90;;;3.02;;
82000;SDS011;71510;50.558;7.258;2023-07-31T06:02:24;4.22;;;2.85;;
82000;SDS011;71510;50.558;7.258;2023-07-31T06:04:51;4.62;;;3.17;;
82000;SDS011;71510;50.558;7.258;2023-07-31T06:07:18;6.62;;;3.17;;
82000;SDS011;71510;50.558;7.258;2023-07-31T06:09:45;5.12;;;2.87;;
82000;SDS011;71510;50.558;7.258;2023-07-31T06:12:13;9.20;;;3.37;;
82000;SDS011;71510;50.558;7.258;2023-07-31T06:14:40;3.47;;;2.50;;
82000;SDS011;71510;50.558;7.258;2023-07-31T06:17:07;5.40;;;3.08;;
82000;SDS011;71510;50.558;7.258;2023-07-31T06:19:35;3.52;;;2.58;;
82000;SDS011;71510;50.558;7.258;2023-07-31T06:22:02;4.75;;;2.75;;
82000;SDS011;71510;50.558;7.258;2023-07-31T06:24:29;6.60;;;3.37;;
82000;SDS011;71510;50.558;7.258;2023-07-31T06:26:57;5.62;;;3.05;;
82000;SDS011;71510;50.558;7.258;2023-07-31T06:29:24;7.53;;;3.67;;
82000;SDS011;71510;50.558;7.258;2023-07-31T06:31:51;6.03;;;3.80;;
82000;SDS011;71510;50.558;7.258;2023-07-31T06:34:18;4.42;;;3.30;;
82000;SDS011;71510;50.558;7.258;2023-07-31T06:36:46;5.12;;;3.02;;
82000;SDS011;71510;50.558;7.258;2023-07-31T06:39:13;10.50;;;3.80;;
82000;SDS011;71510;50.558;7.258;2023-07-31T06:41:41;6.28;;;3.25;;
82000;SDS011;71510;50.558;7.258;2023-07-31T06:44:09;5.20;;;3.70;;
82000;SDS011;71510;50.558;7.258;2023-07-31T06:46:36;8.33;;;3.40;;
82000;SDS011;71510;50.558;7.258;2023-07-31T06:49:04;5.17;;;3.22;;
82000;SDS011;71510;50.558;7.258;2023-07-31T06:51:31;6.78;;;3.30;;
82000;SDS011;71510;50.558;7.258;2023-07-31T06:53:58;5.87;;;3.30;;
82000;SDS011;71510;50.558;7.258;2023-07-31T06:56:26;6.45;;;2.95;;
82000;SDS011;71510;50.558;7.258;2023-07-31T06:58:53;7.35;;;3.77;;
82000;SDS011;71510;50.558;7.258;2023-07-31T07:01:21;7.25;;;3.05;;
82000;SDS011;71510;50.558;7.258;2023-07-31T07:03:48;6.65;;;3.40;;
82000;SDS011;71510;50.558;7.258;2023-07-31T07:06:17;4.37;;;3.67;;
82000;SDS011;71510;50.558;7.258;2023-07-31T07:08:44;6.35;;;3.10;;
82000;SDS011;71510;50.558;7.258;2023-07-31T07:11:11;8.23;;;3.58;;
82000;SDS011;71510;50.558;7.258;2023-07-31T07:13:39;6.45;;;3.35;;
82000;SDS011;71510;50.558;7.258;2023-07-31T07:16:06;6.22;;;3.60;;
82000;SDS011;71510;50.558;7.258;2023-07-31T07:18:34;5.40;;;3.40;;
82000;SDS011;71510;50.558;7.258;2023-07-31T07:21:01;6.75;;;3.52;;
82000;SDS011;71510;50.558;7.258;2023-07-31T07:23:29;13.83;;;4.08;;
82000;SDS011;71510;50.558;7.258;2023-07-31T07:25:56;11.68;;;3.40;;
82000;SDS011;71510;50.558;7.258;2023-07-31T07:28:23;7.40;;;3.47;;
82000;SDS011;71510;50.558;7.258;2023-07-31T07:30:51;8.53;;;3.60;;
82000;SDS011;71510;50.558;7.258;2023-07-31T07:33:20;9.30;;;3.85;;
82000;SDS011;71510;50.558;7.258;2023-07-31T07:35:47;7.40;;;3.87;;
82000;SDS011;71510;50.558;7.258;2023-07-31T07:38:15;9.05;;;3.45;;
82000;SDS011;71510;50.558;7.258;2023-07-31T07:40:42;7.15;;;4.15;;
82000;SDS011;71510;50.558;7.258;2023-07-31T07:43:09;6.67;;;3.37;;
82000;SDS011;71510;50.558;7.258;2023-07-31T07:45:37;8.05;;;3.45;;
82000;SDS011;71510;50.558;7.258;2023-07-31T07:48:04;6.15;;;3.27;;
82000;SDS011;71510;50.558;7.258;2023-07-31T07:50:31;10.20;;;3.85;;
82000;SDS011;71510;50.558;7.258;2023-07-31T07:52:59;4.37;;;3.12;;
82000;SDS011;71510;50.558;7.258;2023-07-31T07:55:27;5.37;;;3.35;;
82000;SDS011;71510;50.558;7.258;2023-07-31T07:57:54;7.10;;;3.62;;
82000;SDS011;71510;50.558;7.258;2023-07-31T08:00:21;7.37;;;3.25;;
82000;SDS011;71510;50.558;7.258;2023-07-31T08:02:48;5.17;;;3.00;;
82000;SDS011;71510;50.558;7.258;2023-07-31T08:05:16;5.50;;;3.70;;
82000;SDS011;71510;50.558;7.258;2023-07-31T08:07:44;5.55;;;3.35;;
82000;SDS011;71510;50.558;7.258;2023-07-31T08:10:11;7.53;;;3.65;;
82000;SDS011;71510;50.558;7.258;2023-07-31T08:12:38;10.08;;;4.30;;
82000;SDS011;71510;50.558;7.258;2023-07-31T08:15:06;7.97;;;3.95;;
82000;SDS011;71510;50.558;7.258;2023-07-31T08:17:34;6.70;;;3.98;;
82000;SDS011;71510;50.558;7.258;2023-07-31T08:20:01;10.48;;;4.53;;
82000;SDS011;71510;50.558;7.258;2023-07-31T08:22:28;9.15;;;4.03;;
82000;SDS011;71510;50.558;7.258;2023-07-31T08:24:56;10.43;;;4.30;;
82000;SDS011;71510;50.558;7.258;2023-07-31T08:27:23;9.38;;;3.70;;
82000;SDS011;71510;50.558;7.258;2023-07-31T08:29:51;6.55;;;3.62;;
82000;SDS011;71510;50.558;7.258;2023-07-31T08:32:19;9.68;;;3.52;;
82000;SDS011;71510;50.558;7.258;2023-07-31T08:34:46;7.95;;;4.28;;
82000;SDS011;71510;50.558;7.258;2023-07-31T08:37:14;6.12;;;3.55;;
82000;SDS011;71510;50.558;7.258;2023-07-31T08:39:41;10.53;;;3.87;;
82000;SDS011;71510;50.558;7.258;2023-07-31T08:42:08;6.72;;;3.50;;
82000;SDS011;71510;50.558;7.258;2023-07-31T08:44:35;11.25;;;4.10;;
82000;SDS011;71510;50.558;7.258;2023-07-31T08:47:03;8.20;;;4.17;;
82000;SDS011;71510;50.558;7.258;2023-07-31T08:49:31;9.48;;;3.83;;
82000;SDS011;71510;50.558;7.258;2023-07-31T08:51:58;9.05;;;3.33;;
82000;SDS011;71510;50.558;7.258;2023-07-31T08:54:26;7.45;;;4.00;;
82000;SDS011;71510;50.558;7.258;2023-07-31T08:56:55;6.60;;;3.50;;
82000;SDS011;71510;50.558;7.258;2023-07-31T08:59:23;7.53;;;3.22;;
82000;SDS011;71510;50.558;7.258;2023-07-31T09:01:53;8.23;;;3.90;;
82000;SDS011;71510;50.558;7.258;2023-07-31T09:04:20;9.98;;;3.60;;
82000;SDS011;71510;50.558;7.258;2023-07-31T09:06:48;8.25;;;3.67;;
82000;SDS011;71510;50.558;7.258;2023-07-31T09:09:16;6.85;;;3.27;;
82000;SDS011;71510;50.558;7.258;2023-07-31T09:11:43;6.45;;;3.15;;
82000;SDS011;71510;50.558;7.258;2023-07-31T09:14:10;7.33;;;4.08;;
82000;SDS011;71510;50.558;7.258;2023-07-31T09:17:00;5.78;;;3.50;;
82000;SDS011;71510;50.558;7.258;2023-07-31T09:19:07;7.72;;;3.37;;
82000;SDS011;71510;50.558;7.258;2023-07-31T09:21:39;5.25;;;3.17;;
82000;SDS011;71510;50.558;7.258;2023-07-31T09:24:04;7.00;;;4.10;;
82000;SDS011;71510;50.558;7.258;2023-07-31T09:26:39;5.15;;;3.55;;
82000;SDS011;71510;50.558;7.258;2023-07-31T09:29:04;10.15;;;4.50;;
82000;SDS011;71510;50.558;7.258;2023-07-31T09:31:42;6.08;;;3.60;;
82000;SDS011;71510;50.558;7.258;2023-07-31T09:34:09;5.55;;;3.45;;
82000;SDS011;71510;50.558;7.258;2023-07-31T09:36:40;10.00;;;3.98;;
82000;SDS011;71510;50.558;7.258;2023-07-31T09:39:09;8.25;;;4.20;;
82000;SDS011;71510;50.558;7.258;2023-07-31T09:41:43;10.93;;;3.65;;
82000;SDS011;71510;50.558;7.258;2023-07-31T09:44:06;11.70;;;3.67;;
82000;SDS011;71510;50.558;7.258;2023-07-31T09:46:37;7.72;;;3.17;;
82000;SDS011;71510;50.558;7.258;2023-07-31T09:49:05;4.17;;;2.98;;
82000;SDS011;71510;50.558;7.258;2023-07-31T09:51:33;4.78;;;3.00;;
82000;SDS011;71510;50.558;7.258;2023-07-31T09:54:02;8.13;;;3.37;;
82000;SDS011;71510;50.558;7.258;2023-07-31T09:56:29;4.15;;;2.92;;
82000;SDS011;71510;50.558;7.258;2023-07-31T09:58:58;7.55;;;2.92;;
82000;SDS011;71510;50.558;7.258;2023-07-31T10:01:25;6.58;;;3.35;;
82000;SDS011;71510;50.558;7.258;2023-07-31T10:03:52;6.87;;;3.45;;
82000;SDS011;71510;50.558;7.258;2023-07-31T10:06:20;4.42;;;2.30;;
82000;SDS011;71510;50.558;7.258;2023-07-31T10:08:49;5.35;;;2.70;;
82000;SDS011;71510;50.558;7.258;2023-07-31T10:11:17;8.28;;;2.35;;
82000;SDS011;71510;50.558;7.258;2023-07-31T10:13:45;8.25;;;3.08;;
82000;SDS011;71510;50.558;7.258;2023-07-31T10:16:13;5.58;;;2.70;;
82000;SDS011;71510;50.558;7.258;2023-07-31T10:18:42;4.03;;;2.42;;
82000;SDS011;71510;50.558;7.258;2023-07-31T10:21:10;3.87;;;1.65;;
82000;SDS011;71510;50.558;7.258;2023-07-31T10:23:38;3.00;;;1.92;;
82000;SDS011;71510;50.558;7.258;2023-07-31T10:26:07;3.92;;;2.02;;
82000;SDS011;71510;50.558;7.258;2023-07-31T10:28:35;6.03;;;2.22;;
82000;SDS011;71510;50.558;7.258;2023-07-31T10:31:03;3.70;;;2.02;;
82000;SDS011;71510;50.558;7.258;2023-07-31T10:33:32;5.62;;;1.90;;
82000;SDS011;71510;50.558;7.258;2023-07-31T10:36:18;3.60;;;1.60;;
82000;SDS011;71510;50.558;7.258;2023-07-31T10:38:48;3.30;;;1.77;;
82000;SDS011;71510;50.558;7.258;2023-07-31T10:41:15;5.03;;;2.12;;
82000;SDS011;71510;50.558;7.258;2023-07-31T10:43:42;2.85;;;1.82;;
82000;SDS011;71510;50.558;7.258;2023-07-31T10:46:12;2.58;;;2.00;;
82000;SDS011;71510;50.558;7.258;2023-07-31T10:48:40;3.85;;;2.15;;
82000;SDS011;71510;50.558;7.258;2023-07-31T10:51:08;4.37;;;2.27;;
82000;SDS011;71510;50.558;7.258;2023-07-31T10:53:36;4.60;;;1.72;;
82000;SDS011;71510;50.558;7.258;2023-07-31T10:56:09;4.03;;;2.08;;
82000;SDS011;71510;50.558;7.258;2023-07-31T10:58:33;7.40;;;1.90;;
82000;SDS011;71510;50.558;7.258;2023-07-31T11:01:02;2.30;;;1.52;;
82000;SDS011;71510;50.558;7.258;2023-07-31T11:03:46;2.58;;;1.77;;
82000;SDS011;71510;50.558;7.258;2023-07-31T11:06:15;2.33;;;1.27;;
82000;SDS011;71510;50.558;7.258;2023-07-31T11:08:43;2.62;;;1.82;;
82000;SDS011;71510;50.558;7.258;2023-07-31T11:11:12;3.08;;;1.72;;
82000;SDS011;71510;50.558;7.258;2023-07-31T11:13:44;4.30;;;1.90;;
82000;SDS011;71510;50.558;7.258;2023-07-31T11:16:12;3.40;;;1.20;;
82000;SDS011;71510;50.558;7.258;2023-07-31T11:18:40;2.95;;;1.55;;
82000;SDS011;71510;50.558;7.258;2023-07-31T11:21:12;2.58;;;1.52;;
82000;SDS011;71510;50.558;7.258;2023-07-31T11:23:37;2.40;;;1.22;;
82000;SDS011;71510;50.558;7.258;2023-07-31T11:26:05;3.08;;;1.50;;
82000;SDS011;71510;50.558;7.258;2023-07-31T11:28:34;3.67;;;1.40;;
82000;SDS011;71510;50.558;7.258;2023-07-31T11:31:02;3.87;;;1.25;;
82000;SDS011;71510;50.558;7.258;2023-07-31T11:33:29;1.80;;;0.98;;
82000;SDS011;71510;50.558;7.258;2023-07-31T11:35:57;5.95;;;1.40;;
82000;SDS011;71510;50.558;7.258;2023-07-31T11:38:25;2.65;;;1.30;;
82000;SDS011;71510;50.558;7.258;2023-07-31T11:40:54;2.05;;;1.30;;
82000;SDS011;71510;50.558;7.258;2023-07-31T11:43:21;10.98;;;1.65;;
82000;SDS011;71510;50.558;7.258;2023-07-31T11:45:50;3.72;;;0.95;;
82000;SDS011;71510;50.558;7.258;2023-07-31T11:48:39;3.85;;;1.20;;
82000;SDS011;71510;50.558;7.258;2023-07-31T11:50:47;2.12;;;1.10;;
82000;SDS011;71510;50.558;7.258;2023-07-31T11:53:16;3.15;;;1.05;;
82000;SDS011;71510;50.558;7.258;2023-07-31T11:55:44;1.67;;;0.90;;
82000;SDS011;71510;50.558;7.258;2023-07-31T11:58:13;1.62;;;1.22;;
82000;SDS011;71510;50.558;7.258;2023-07-31T12:00:41;3.90;;;1.70;;
82000;SDS011;71510;50.558;7.258;2023-07-31T12:03:08;1.55;;;1.07;;
82000;SDS011;71510;50.558;7.258;2023-07-31T12:05:36;3.58;;;1.80;;
82000;SDS011;71510;50.558;7.258;2023-07-31T12:08:11;5.05;;;1.95;;
82000;SDS011;71510;50.558;7.258;2023-07-31T12:10:39;4.25;;;2.00;;
82000;SDS011;71510;50.558;7.258;2023-07-31T12:13:10;4.95;;;2.10;;
82000;SDS011;71510;50.558;7.258;2023-07-31T12:18:13;3.12;;;2.30;;
82000;SDS011;71510;50.558;7.258;2023-07-31T12:20:41;2.65;;;2.17;;
82000;SDS011;71510;50.558;7.258;2023-07-31T12:23:12;2.60;;;2.40;;
82000;SDS011;71510;50.558;7.258;2023-07-31T12:25:40;7.35;;;3.12;;
82000;SDS011;71510;50.558;7.258;2023-07-31T12:28:08;3.27;;;2.98;;
82000;SDS011;71510;50.558;7.258;2023-07-31T12:30:37;4.92;;;3.50;;
82000;SDS011;71510;50.558;7.258;2023-07-31T12:33:16;8.53;;;4.35;;
82000;SDS011;71510;50.558;7.258;2023-07-31T12:35:44;5.60;;;3.65;;
82000;SDS011;71510;50.558;7.258;2023-07-31T12:38:09;5.70;;;3.25;;
82000;SDS011;71510;50.558;7.258;2023-07-31T12:40:41;6.42;;;3.42;;
82000;SDS011;71510;50.558;7.258;2023-07-31T12:43:06;5.42;;;3.27;;
82000;SDS011;71510;50.558;7.258;2023-07-31T12:45:34;5.10;;;3.00;;
82000;SDS011;71510;50.558;7.258;2023-07-31T12:48:01;6.62;;;3.27;;
82000;SDS011;71510;50.558;7.258;2023-07-31T12:50:29;4.28;;;3.30;;
82000;SDS011;71510;50.558;7.258;2023-07-31T12:52:56;5.55;;;3.50;;
82000;SDS011;71510;50.558;7.258;2023-07-31T12:55:24;4.05;;;2.95;;
82000;SDS011;71510;50.558;7.258;2023-07-31T12:57:51;6.67;;;3.12;;
82000;SDS011;71510;50.558;7.258;2023-07-31T13:00:18;5.45;;;3.20;;
82000;SDS011;71510;50.558;7.258;2023-07-31T13:02:46;4.28;;;3.00;;
82000;SDS011;71510;50.558;7.258;2023-07-31T13:05:13;4.37;;;3.12;;
82000;SDS011;71510;50.558;7.258;2023-07-31T13:07:40;4.20;;;2.40;;
82000;SDS011;71510;50.558;7.258;2023-07-31T13:10:08;5.22;;;3.65;;
82000;SDS011;71510;50.558;7.258;2023-07-31T13:12:35;4.30;;;2.50;;
82000;SDS011;71510;50.558;7.258;2023-07-31T13:15:03;3.90;;;2.90;;
82000;SDS011;71510;50.558;7.258;2023-07-31T13:17:31;5.20;;;2.55;;
82000;SDS011;71510;50.558;7.258;2023-07-31T13:19:58;4.22;;;2.77;;
82000;SDS011;71510;50.558;7.258;2023-07-31T13:22:26;4.65;;;2.87;;
82000;SDS011;71510;50.558;7.258;2023-07-31T13:24:53;3.22;;;1.95;;
82000;SDS011;71510;50.558;7.258;2023-07-31T13:27:20;2.83;;;1.72;;
82000;SDS011;71510;50.558;7.258;2023-07-31T13:29:48;2.35;;;2.10;;
82000;SDS011;71510;50.558;7.258;2023-07-31T13:32:16;2.22;;;1.90;;
82000;SDS011;71510;50.558;7.258;2023-07-31T13:34:44;2.77;;;1.65;;
82000;SDS011;71510;50.558;7.258;2023-07-31T13:37:11;3.50;;;1.67;;
82000;SDS011;71510;50.558;7.258;2023-07-31T13:39:39;2.72;;;1.70;;
82000;SDS011;71510;50.558;7.258;2023-07-31T13:42:07;3.17;;;1.98;;
82000;SDS011;71510;50.558;7.258;2023-07-31T13:44:34;6.28;;;2.00;;
82000;SDS011;71510;50.558;7.258;2023-07-31T13:47:02;1.90;;;1.67;;
82000;SDS011;71510;50.558;7.258;2023-07-31T13:49:29;2.50;;;1.30;;
82000;SDS011;71510;50.558;7.258;2023-07-31T13:51:57;3.50;;;1.77;;
82000;SDS011;71510;50.558;7.258;2023-07-31T13:54:24;1.80;;;1.40;;
82000;SDS011;71510;50.558;7.258;2023-07-31T13:56:54;2.20;;;1.62;;
82000;SDS011;71510;50.558;7.258;2023-07-31T13:59:22;2.20;;;2.00;;
82000;SDS011;71510;50.558;7.258;2023-07-31T14:01:49;3.10;;;1.65;;
82000;SDS011;71510;50.558;7.258;2023-07-31T14:04:17;2.58;;;1.57;;
82000;SDS011;71510;50.558;7.258;2023-07-31T14:06:44;2.12;;;1.57;;
82000;SDS011;71510;50.558;7.258;2023-07-31T14:09:11;1.70;;;1.37;;
82000;SDS011;71510;50.558;7.258;2023-07-31T14:11:40;2.30;;;1.60;;
82000;SDS011;71510;50.558;7.258;2023-07-31T14:14:08;2.33;;;1.42;;
82000;SDS011;71510;50.558;7.258;2023-07-31T14:16:36;2.62;;;1.40;;
82000;SDS011;71510;50.558;7.258;2023-07-31T14:19:03;1.52;;;1.10;;
82000;SDS011;71510;50.558;7.258;2023-07-31T14:21:31;4.65;;;1.65;;
82000;SDS011;71510;50.558;7.258;2023-07-31T14:23:58;1.85;;;1.30;;
82000;SDS011;71510;50.558;7.258;2023-07-31T14:26:25;2.37;;;1.50;;
82000;SDS011;71510;50.558;7.258;2023-07-31T14:28:52;1.87;;;1.57;;
82000;SDS011;71510;50.558;7.258;2023-07-31T14:31:20;1.60;;;1.42;;
82000;SDS011;71510;50.558;7.258;2023-07-31T14:33:47;1.55;;;1.30;;
82000;SDS011;71510;50.558;7.258;2023-07-31T14:36:14;3.95;;;1.50;;
82000;SDS011;71510;50.558;7.258;2023-07-31T14:38:42;5.05;;;1.47;;
82000;SDS011;71510;50.558;7.258;2023-07-31T14:41:09;3.52;;;1.52;;
82000;SDS011;71510;50.558;7.258;2023-07-31T14:43:36;3.95;;;1.52;;
82000;SDS011;71510;50.558;7.258;2023-07-31T14:46:04;1.57;;;1.47;;
82000;SDS011;71510;50.558;7.258;2023-07-31T14:48:32;2.62;;;1.70;;
82000;SDS011;71510;50.558;7.258;2023-07-31T14:50:59;3.17;;;1.50;;
82000;SDS011;71510;50.558;7.258;2023-07-31T14:53:27;2.33;;;1.50;;
82000;SDS011;71510;50.558;7.258;2023-07-31T14:55:54;2.83;;;2.17;;
82000;SDS011;71510;50.558;7.258;2023-07-31T14:58:22;2.95;;;1.82;;